Time;durP1;ratioP1;P1;durP2;ratioP2;P2;SDS_P1;SDS_P2;PMS_P1;PMS_P2;Temp;Humidity;BMP_temperature;BMP_pressure;BME280_temperature;BME280_humidity;BME280_pressure;Samples;Min_cycle;Max_cycle;Signal;HPM_P1;HPM_P2
2023/08/07 00:00:12;;;;;;;6.82;4.22;;;14.50;99.90;;;;;;4992351;28;90262;-34
2023/08/07 00:02:38;;;;;;;9.20;5.68;;;14.50;99.90;;;;;;4997346;28;89583;-35
2023/08/07 00:05:05;;;;;;;6.70;4.50;;;14.50;99.90;;;;;;4998865;28;88404;-31
2023/08/07 00:07:30;;;;;;;6.30;4.85;;;14.50;99.90;;;;;;4998316;28;90276;-38
2023/08/07 00:09:56;;;;;;;8.15;6.20;;;14.50;99.90;;;;;;4999628;28;89172;-36
2023/08/07 00:12:22;;;;;;;8.88;5.95;;;14.50;99.90;;;;;;4997998;28;90552;-35
2023/08/07 00:14:50;;;;;;;8.68;5.63;;;14.50;99.90;;;;;;4998975;28;89937;-31
2023/08/07 00:17:16;;;;;;;7.53;5.63;;;14.50;99.90;;;;;;4998511;28;89768;-34
2023/08/07 00:19:41;;;;;;;6.55;5.68;;;14.50;99.90;;;;;;4998905;28;89338;-37
2023/08/07 00:22:07;;;;;;;10.35;6.50;;;14.50;99.90;;;;;;4998598;28;90321;-37
2023/08/07 00:24:32;;;;;;;6.95;6.20;;;14.50;99.90;;;;;;4997795;28;90591;-31
2023/08/07 00:26:58;;;;;;;5.97;5.38;;;14.50;99.90;;;;;;4998722;28;90834;-38
2023/08/07 00:29:24;;;;;;;9.48;5.15;;;14.50;99.90;;;;;;4980775;28;88629;-35
2023/08/07 00:31:50;;;;;;;6.65;5.05;;;14.50;99.90;;;;;;4998557;28;90608;-33
2023/08/07 00:34:15;;;;;;;9.23;5.63;;;14.50;99.90;;;;;;4999382;28;88554;-34
2023/08/07 00:36:41;;;;;;;7.53;6.60;;;14.60;99.90;;;;;;4997956;28;89947;-33
2023/08/07 00:39:07;;;;;;;7.85;6.25;;;14.50;99.90;;;;;;4999613;28;88164;-34
2023/08/07 00:41:33;;;;;;;8.52;5.88;;;14.60;99.90;;;;;;4998868;28;89860;-37
2023/08/07 00:43:59;;;;;;;7.35;5.63;;;14.60;99.90;;;;;;4999095;28;90188;-33
2023/08/07 00:46:26;;;;;;;9.15;5.28;;;14.60;99.90;;;;;;4999091;28;89017;-32
2023/08/07 00:48:53;;;;;;;6.57;5.88;;;14.60;99.90;;;;;;4998495;28;89640;-35
2023/08/07 00:51:20;;;;;;;8.27;5.75;;;14.60;99.90;;;;;;4998399;28;92844;-33
2023/08/07 00:53:46;;;;;;;5.70;4.28;;;14.70;99.90;;;;;;4998769;28;89513;-38
2023/08/07 00:56:12;;;;;;;9.18;4.97;;;14.60;99.90;;;;;;4980688;28;89236;-36
2023/08/07 00:58:38;;;;;;;8.65;5.28;;;14.70;99.90;;;;;;4999084;28;89762;-35
2023/08/07 01:01:05;;;;;;;7.10;4.93;;;14.70;99.90;;;;;;4998020;28;90272;-34
2023/08/07 01:03:31;;;;;;;5.30;4.15;;;14.70;99.90;;;;;;4985566;28;89693;-32
2023/08/07 01:05:57;;;;;;;5.65;5.05;;;14.70;99.90;;;;;;4985932;28;89426;-32
2023/08/07 01:08:27;;;;;;;5.30;4.55;;;14.70;99.90;;;;;;4983558;28;89733;-32
2023/08/07 01:11:05;;;;;;;4.82;4.43;;;14.70;99.90;;;;;;4999360;28;90921;-33
2023/08/07 01:13:37;;;;;;;;;;;14.70;99.90;;;;;;4999222;28;91504;-30
2023/08/07 01:16:13;;;;;;;7.68;4.72;;;14.70;99.90;;;;;;5003149;28;89731;-37
2023/08/07 01:18:40;;;;;;;9.98;4.93;;;14.70;99.90;;;;;;4999401;28;87919;-33
2023/08/07 01:21:06;;;;;;;5.50;4.80;;;14.70;99.90;;;;;;5000850;28;89933;-31
2023/08/07 01:23:32;;;;;;;7.55;4.63;;;14.70;99.90;;;;;;4998665;28;89968;-36
2023/08/07 01:25:57;;;;;;;6.05;5.38;;;14.70;99.90;;;;;;5000057;28;89207;-37
2023/08/07 01:28:39;;;;;;;8.00;5.15;;;14.60;99.90;;;;;;5000087;28;89497;-32
2023/08/07 01:31:14;;;;;;;6.05;5.40;;;14.60;99.90;;;;;;4995049;28;90046;-34
2023/08/07 01:33:53;;;;;;;7.97;5.20;;;14.60;99.90;;;;;;4993833;28;90325;-34
2023/08/07 01:36:20;;;;;;;6.45;5.20;;;14.60;99.90;;;;;;4992115;28;89868;-32
2023/08/07 01:38:48;;;;;;;7.90;5.43;;;14.60;99.90;;;;;;4977650;28;89938;-31
2023/08/07 01:41:14;;;;;;;7.13;5.72;;;14.60;99.90;;;;;;4991383;28;90954;-33
2023/08/07 01:43:40;;;;;;;16.95;5.72;;;14.50;99.90;;;;;;4995862;28;89879;-35
2023/08/07 01:46:06;;;;;;;4.47;4.07;;;14.50;99.90;;;;;;4991551;28;90759;-34
2023/08/07 01:48:32;;;;;;;5.45;4.75;;;14.50;99.90;;;;;;4995945;28;90287;-33
2023/08/07 01:50:57;;;;;;;5.18;4.53;;;14.50;99.90;;;;;;4990301;28;90099;-35
2023/08/07 01:53:23;;;;;;;8.80;4.80;;;14.50;99.90;;;;;;4995800;28;89333;-33
2023/08/07 01:55:49;;;;;;;5.20;4.47;;;14.50;99.90;;;;;;4990902;28;89360;-32
2023/08/07 01:58:14;;;;;;;4.75;4.15;;;14.50;99.90;;;;;;4995502;28;90215;-32
2023/08/07 02:00:40;;;;;;;6.75;4.22;;;14.50;99.90;;;;;;4994597;28;90380;-33
2023/08/07 02:03:05;;;;;;;7.40;4.20;;;14.50;99.90;;;;;;5000821;28;90826;-34
2023/08/07 02:05:31;;;;;;;4.60;4.18;;;14.50;99.90;;;;;;4999768;28;89311;-32
2023/08/07 02:07:57;;;;;;;5.45;4.13;;;14.50;99.90;;;;;;5001722;28;89994;-34
2023/08/07 02:10:23;;;;;;;6.60;4.63;;;14.50;99.90;;;;;;4982169;28;90167;-32
2023/08/07 02:12:50;;;;;;;6.38;4.30;;;14.50;99.90;;;;;;5001421;28;89388;-38
2023/08/07 02:15:16;;;;;;;6.53;3.58;;;14.50;99.90;;;;;;5000083;28;89102;-36
2023/08/07 02:17:42;;;;;;;7.30;4.07;;;14.50;99.90;;;;;;5000866;28;89474;-38
2023/08/07 02:20:08;;;;;;;7.75;3.67;;;14.50;99.90;;;;;;5000167;28;90108;-38
2023/08/07 02:22:34;;;;;;;5.40;4.45;;;14.50;99.90;;;;;;5001037;28;90212;-33
2023/08/07 02:24:59;;;;;;;12.50;5.18;;;14.50;99.90;;;;;;5000225;28;89486;-33
2023/08/07 02:27:25;;;;;;;9.07;3.92;;;14.50;99.90;;;;;;5001366;28;88418;-36
2023/08/07 02:29:51;;;;;;;11.23;3.70;;;14.50;99.90;;;;;;4992086;28;92072;-35
2023/08/07 02:32:16;;;;;;;5.75;3.67;;;14.50;99.90;;;;;;4992878;28;90223;-33
2023/08/07 02:34:44;;;;;;;7.60;3.63;;;14.50;99.90;;;;;;4993142;28;89799;-34
2023/08/07 02:37:10;;;;;;;6.43;3.72;;;14.50;99.90;;;;;;4986428;28;88674;-36
2023/08/07 02:39:35;;;;;;;10.30;3.85;;;14.60;99.90;;;;;;4988905;28;90132;-36
2023/08/07 02:42:01;;;;;;;6.20;4.18;;;14.60;99.90;;;;;;4985471;28;89686;-37
2023/08/07 02:44:26;;;;;;;6.30;3.15;;;14.60;99.90;;;;;;4988713;28;88969;-35
2023/08/07 02:46:52;;;;;;;4.63;3.55;;;14.60;99.90;;;;;;4992434;28;89542;-32
2023/08/07 02:49:18;;;;;;;15.90;4.03;;;14.60;99.90;;;;;;4990843;28;90249;-38
2023/08/07 02:51:43;;;;;;;9.30;3.72;;;14.60;99.90;;;;;;4994157;28;90539;-31
2023/08/07 02:54:09;;;;;;;10.05;4.45;;;14.50;99.90;;;;;;4989750;28;90279;-35
2023/08/07 02:56:35;;;;;;;8.43;4.00;;;14.50;99.90;;;;;;4991620;28;89278;-34
2023/08/07 02:59:01;;;;;;;7.28;3.10;;;14.50;99.90;;;;;;4990287;28;90836;-33
2023/08/07 03:01:27;;;;;;;10.15;3.45;;;14.50;99.90;;;;;;4999826;28;90202;-37
2023/08/07 03:03:53;;;;;;;6.70;3.42;;;14.50;99.90;;;;;;4983876;28;89375;-36
2023/08/07 03:06:19;;;;;;;7.53;4.25;;;14.50;99.90;;;;;;4980098;28;87661;-33
2023/08/07 03:08:44;;;;;;;7.97;3.05;;;14.50;99.90;;;;;;4981435;28;90593;-35
2023/08/07 03:11:10;;;;;;;11.57;4.68;;;14.50;99.90;;;;;;4980763;28;89826;-37
2023/08/07 03:13:36;;;;;;;7.00;3.35;;;14.50;99.90;;;;;;4994595;28;89272;-33
2023/08/07 03:16:04;;;;;;;7.90;3.10;;;14.50;99.90;;;;;;4999450;28;88117;-35
2023/08/07 03:18:29;;;;;;;7.32;2.90;;;14.50;99.90;;;;;;4998033;28;91705;-37
2023/08/07 03:20:56;;;;;;;7.20;3.30;;;14.40;99.90;;;;;;4998693;28;89598;-32
2023/08/07 03:23:22;;;;;;;9.63;2.50;;;14.40;99.90;;;;;;4997930;28;89722;-36
2023/08/07 03:25:48;;;;;;;5.57;3.47;;;14.40;99.90;;;;;;4998831;28;89385;-33
2023/08/07 03:28:14;;;;;;;4.80;3.22;;;14.40;99.90;;;;;;4997027;28;89915;-36
2023/08/07 03:30:40;;;;;;;7.25;3.03;;;14.40;99.90;;;;;;4994285;28;89894;-34
2023/08/07 03:33:06;;;;;;;10.48;3.53;;;14.40;99.90;;;;;;4990103;28;89284;-35
2023/08/07 03:35:32;;;;;;;5.97;3.50;;;14.40;99.90;;;;;;4993887;28;90369;-33
2023/08/07 03:37:57;;;;;;;7.72;3.15;;;14.30;99.90;;;;;;4988942;28;90523;-32
2023/08/07 03:40:23;;;;;;;18.95;3.42;;;14.30;99.90;;;;;;4991151;28;90812;-37
2023/08/07 03:42:48;;;;;;;7.95;2.60;;;14.30;99.90;;;;;;4988328;28;90707;-33
2023/08/07 03:45:14;;;;;;;12.68;4.07;;;14.30;99.90;;;;;;4991658;28;89693;-38
2023/08/07 03:47:40;;;;;;;5.78;3.28;;;14.20;99.90;;;;;;4990043;28;90612;-32
2023/08/07 03:50:06;;;;;;;8.48;3.80;;;14.20;99.90;;;;;;4991799;28;89913;-33
2023/08/07 03:52:32;;;;;;;10.32;3.00;;;14.30;99.90;;;;;;4999157;28;89934;-34
2023/08/07 03:54:57;;;;;;;8.98;3.22;;;14.30;99.90;;;;;;4998926;28;88272;-35
2023/08/07 03:57:23;;;;;;;5.05;2.70;;;14.30;99.90;;;;;;4988851;28;90591;-33
2023/08/07 03:59:48;;;;;;;5.22;3.03;;;14.30;99.90;;;;;;4999046;28;91257;-32
2023/08/07 04:02:14;;;;;;;5.90;2.75;;;14.30;99.90;;;;;;4993187;28;89168;-33
2023/08/07 04:04:40;;;;;;;6.57;3.00;;;14.20;99.90;;;;;;4995292;28;88859;-36
2023/08/07 04:07:05;;;;;;;8.35;3.65;;;14.20;99.90;;;;;;4993796;28;90749;-37
2023/08/07 04:09:32;;;;;;;11.73;3.40;;;14.30;99.90;;;;;;4997992;28;89294;-32
2023/08/07 04:11:57;;;;;;;6.47;2.85;;;14.30;99.90;;;;;;4993795;28;89934;-34
2023/08/07 04:14:23;;;;;;;6.35;3.25;;;14.20;99.90;;;;;;4994136;28;88527;-38
2023/08/07 04:16:49;;;;;;;13.73;3.95;;;14.20;99.90;;;;;;4991964;28;89837;-31
2023/08/07 04:19:14;;;;;;;8.75;3.08;;;14.30;99.90;;;;;;4993592;28;90250;-36
2023/08/07 04:21:40;;;;;;;12.23;3.38;;;14.20;99.90;;;;;;4993030;28;89379;-33
2023/08/07 04:24:10;;;;;;;13.02;3.97;;;14.30;99.90;;;;;;4994422;28;88893;-36
2023/08/07 04:26:36;;;;;;;14.55;2.60;;;14.20;99.90;;;;;;4991170;28;90064;-36
2023/08/07 04:29:02;;;;;;;6.60;3.17;;;14.30;99.90;;;;;;4994553;28;89990;-34
2023/08/07 04:31:28;;;;;;;5.97;3.33;;;14.20;99.90;;;;;;4998380;28;89942;-37
2023/08/07 04:33:53;;;;;;;10.90;3.15;;;14.30;99.90;;;;;;4998390;28;89163;-37
2023/08/07 04:36:20;;;;;;;8.45;3.25;;;14.30;99.90;;;;;;4998527;28;90098;-33
2023/08/07 04:38:46;;;;;;;11.52;3.28;;;14.30;99.90;;;;;;4998634;28;89736;-31
2023/08/07 04:41:12;;;;;;;6.68;3.20;;;14.30;99.90;;;;;;4997438;28;89304;-35
2023/08/07 04:43:37;;;;;;;7.32;2.70;;;14.30;99.90;;;;;;5003301;28;89182;-37
2023/08/07 04:46:03;;;;;;;6.35;2.70;;;14.40;99.90;;;;;;5004927;28;90514;-35
2023/08/07 04:48:29;;;;;;;7.82;3.50;;;14.40;99.90;;;;;;4997909;28;89906;-32
2023/08/07 04:50:55;;;;;;;7.03;3.25;;;14.40;99.90;;;;;;4998139;28;89040;-31
2023/08/07 04:53:21;;;;;;;9.07;3.20;;;14.40;99.90;;;;;;4997327;28;90003;-34
2023/08/07 04:55:46;;;;;;;7.90;3.38;;;14.40;99.90;;;;;;4999076;28;90744;-36
2023/08/07 04:58:12;;;;;;;10.77;3.30;;;14.40;99.90;;;;;;4997702;28;89861;-38
2023/08/07 05:00:38;;;;;;;4.20;2.65;;;14.40;99.90;;;;;;4987563;28;88506;-36
2023/08/07 05:03:04;;;;;;;8.50;2.80;;;14.40;99.90;;;;;;4998780;28;88128;-33
2023/08/07 05:05:29;;;;;;;9.75;3.75;;;14.40;99.90;;;;;;4977261;28;89932;-33
2023/08/07 05:07:55;;;;;;;5.07;2.85;;;14.40;99.90;;;;;;4979564;28;89756;-31
2023/08/07 05:10:21;;;;;;;8.38;3.47;;;14.40;99.90;;;;;;4980623;28;90224;-32
2023/08/07 05:12:47;;;;;;;7.65;3.00;;;14.40;99.90;;;;;;4998806;28;87919;-34
2023/08/07 05:15:13;;;;;;;11.57;5.43;;;14.40;99.90;;;;;;4984201;28;89846;-33
2023/08/07 05:17:38;;;;;;;4.53;3.45;;;14.40;99.90;;;;;;4997896;28;90658;-31
2023/08/07 05:20:05;;;;;;;7.20;4.20;;;14.40;99.90;;;;;;4982482;28;90452;-32
2023/08/07 05:22:31;;;;;;;12.43;3.65;;;14.40;99.90;;;;;;4978939;28;88336;-36
2023/08/07 05:24:56;;;;;;;9.00;3.38;;;14.40;99.90;;;;;;4980447;28;91609;-32
2023/08/07 05:27:22;;;;;;;6.15;3.40;;;14.40;99.90;;;;;;4985851;28;90838;-33
2023/08/07 05:29:48;;;;;;;8.77;3.67;;;14.50;99.90;;;;;;4992580;28;90375;-35
2023/08/07 05:32:14;;;;;;;6.07;4.00;;;14.50;99.90;;;;;;4990131;28;89216;-35
2023/08/07 05:34:41;;;;;;;4.13;3.30;;;14.50;99.90;;;;;;4976511;28;90835;-32
2023/08/07 05:37:07;;;;;;;7.32;4.38;;;14.60;99.90;;;;;;4976427;28;90114;-33
2023/08/07 05:39:34;;;;;;;9.48;4.22;;;14.70;99.90;;;;;;4976875;28;89416;-32
2023/08/07 05:41:59;;;;;;;10.40;3.88;;;14.70;99.90;;;;;;4988794;28;89456;-32
2023/08/07 05:44:25;;;;;;;11.98;4.25;;;14.70;99.90;;;;;;4976459;28;89020;-34
2023/08/07 05:46:51;;;;;;;15.52;4.88;;;14.70;99.90;;;;;;4993301;28;90327;-37
2023/08/07 05:49:16;;;;;;;8.25;3.53;;;14.70;99.90;;;;;;4995491;28;89284;-35
2023/08/07 05:51:42;;;;;;;10.57;3.15;;;14.70;99.90;;;;;;4996104;28;89477;-34
2023/08/07 05:54:08;;;;;;;5.97;3.78;;;14.70;99.90;;;;;;4998220;28;90430;-34
2023/08/07 05:56:34;;;;;;;10.63;5.28;;;14.70;99.90;;;;;;4996867;28;89500;-35
2023/08/07 05:58:59;;;;;;;6.95;3.42;;;14.70;99.90;;;;;;4998342;28;89046;-38
2023/08/07 06:01:30;;;;;;;9.88;3.97;;;14.70;99.90;;;;;;4998303;28;88939;-38
2023/08/07 06:03:59;;;;;;;10.70;4.03;;;14.80;99.90;;;;;;4995997;28;90067;-37
2023/08/07 06:06:27;;;;;;;7.75;3.67;;;14.80;99.90;;;;;;4967178;28;90943;-35
2023/08/07 06:08:56;;;;;;;8.50;4.30;;;14.80;99.90;;;;;;4996704;28;90539;-36
2023/08/07 06:11:22;;;;;;;10.43;4.57;;;14.90;99.90;;;;;;4996602;28;89744;-32
2023/08/07 06:13:49;;;;;;;5.93;3.83;;;14.90;99.90;;;;;;4998286;28;90419;-33
2023/08/07 06:16:14;;;;;;;11.13;4.20;;;14.90;99.90;;;;;;4995800;28;89985;-32
2023/08/07 06:18:40;;;;;;;8.93;4.03;;;15.00;99.90;;;;;;4994578;28;89540;-32
2023/08/07 06:21:06;;;;;;;8.98;3.97;;;15.00;99.90;;;;;;5009055;28;88821;-34
2023/08/07 06:23:35;;;;;;;8.20;4.50;;;15.30;99.90;;;;;;4986742;28;90300;-35
2023/08/07 06:26:04;;;;;;;10.30;4.25;;;15.30;99.90;;;;;;4984229;28;89849;-33
2023/08/07 06:28:31;;;;;;;10.65;5.07;;;15.30;99.90;;;;;;4994031;28;87967;-36
2023/08/07 06:31:04;;;;;;;7.65;4.38;;;15.50;99.90;;;;;;4997531;28;90246;-31
2023/08/07 06:33:31;;;;;;;13.32;4.70;;;15.60;99.90;;;;;;4999869;28;90866;-31
2023/08/07 06:35:57;;;;;;;7.28;4.93;;;15.60;99.90;;;;;;5006729;28;90852;-33
2023/08/07 06:38:23;;;;;;;9.35;4.93;;;15.70;99.90;;;;;;4986978;28;89214;-33
2023/08/07 06:40:49;;;;;;;15.10;5.57;;;15.90;99.90;;;;;;4989668;28;88633;-35
2023/08/07 06:43:14;;;;;;;10.88;4.72;;;16.00;99.90;;;;;;4993709;28;90029;-36
2023/08/07 06:45:40;;;;;;;13.10;4.82;;;16.00;99.90;;;;;;4996250;28;89919;-35
2023/08/07 06:48:05;;;;;;;8.20;4.30;;;16.00;99.90;;;;;;4994707;28;90589;-35
2023/08/07 06:50:31;;;;;;;9.45;5.13;;;15.90;99.90;;;;;;5006174;28;88366;-35
2023/08/07 06:52:57;;;;;;;9.05;4.60;;;15.90;99.90;;;;;;5010269;28;90572;-33
2023/08/07 06:55:22;;;;;;;10.00;4.28;;;16.00;99.90;;;;;;5010543;28;90948;-36
2023/08/07 06:57:48;;;;;;;8.80;4.00;;;16.30;99.90;;;;;;5000315;28;91134;-34
2023/08/07 07:00:14;;;;;;;9.48;3.92;;;16.30;99.90;;;;;;4999890;28;87949;-36
2023/08/07 07:02:40;;;;;;;9.35;4.55;;;16.20;99.90;;;;;;5002975;28;90321;-33
2023/08/07 07:05:06;;;;;;;8.75;5.07;;;16.10;99.90;;;;;;5011575;28;89868;-35
2023/08/07 07:07:31;;;;;;;9.07;4.53;;;16.10;99.90;;;;;;4992962;28;89856;-31
2023/08/07 07:10:00;;;;;;;10.52;4.05;;;16.10;99.90;;;;;;4974943;28;87749;-34
2023/08/07 07:12:27;;;;;;;7.25;4.07;;;16.00;99.90;;;;;;4992060;28;91054;-32
2023/08/07 07:14:52;;;;;;;6.70;3.75;;;15.90;99.90;;;;;;5005464;28;90022;-37
2023/08/07 07:17:18;;;;;;;8.48;4.43;;;15.90;99.90;;;;;;4991110;28;91153;-32
2023/08/07 07:19:44;;;;;;;17.08;5.28;;;16.00;99.90;;;;;;4981943;28;89333;-32
2023/08/07 07:22:09;;;;;;;12.10;3.72;;;15.90;99.90;;;;;;4992482;28;90464;-33
2023/08/07 07:24:35;;;;;;;10.65;5.38;;;15.80;99.90;;;;;;4992001;28;90038;-32
2023/08/07 07:27:01;;;;;;;8.10;3.90;;;16.30;99.90;;;;;;4993355;28;89987;-34
2023/08/07 07:29:26;;;;;;;9.85;3.60;;;16.80;99.90;;;;;;4992144;28;89916;-35
2023/08/07 07:31:54;;;;;;;12.55;3.88;;;17.00;99.90;;;;;;4995304;28;88787;-34
2023/08/07 07:34:20;;;;;;;5.10;4.20;;;17.00;99.90;;;;;;4987051;28;89381;-33
2023/08/07 07:36:46;;;;;;;6.97;3.88;;;16.80;99.90;;;;;;4994018;28;90544;-33
2023/08/07 07:39:11;;;;;;;6.07;3.50;;;17.00;99.90;;;;;;4986635;28;89223;-37
2023/08/07 07:41:37;;;;;;;7.85;4.28;;;16.90;99.90;;;;;;4996242;28;90305;-36
2023/08/07 07:44:03;;;;;;;11.38;5.45;;;16.80;99.90;;;;;;4987211;28;89501;-33
2023/08/07 07:46:29;;;;;;;7.65;3.40;;;16.90;99.90;;;;;;4990973;28;89988;-33
2023/08/07 07:48:55;;;;;;;11.88;4.28;;;17.00;99.90;;;;;;4977759;28;89855;-32
2023/08/07 07:51:21;;;;;;;12.35;3.75;;;17.40;99.90;;;;;;4990581;28;90150;-37
2023/08/07 07:53:47;;;;;;;7.88;3.28;;;17.20;99.90;;;;;;4978509;28;89808;-32
2023/08/07 07:56:13;;;;;;;9.27;3.63;;;17.30;99.90;;;;;;4978214;28;89850;-32
2023/08/07 07:58:40;;;;;;;7.10;4.28;;;17.40;99.90;;;;;;4988818;28;88897;-36
2023/08/07 08:01:06;;;;;;;9.48;3.40;;;17.40;99.90;;;;;;4986824;28;90058;-32
2023/08/07 08:03:32;;;;;;;4.25;2.42;;;17.10;99.90;;;;;;4996655;28;90136;-34
2023/08/07 08:05:58;;;;;;;7.45;2.97;;;17.10;99.90;;;;;;4991254;28;90007;-38
2023/08/07 08:08:23;;;;;;;4.13;2.28;;;17.10;99.90;;;;;;4977099;28;91119;-35
2023/08/07 08:10:50;;;;;;;6.38;2.65;;;17.10;99.90;;;;;;4976517;28;90368;-36
2023/08/07 08:13:16;;;;;;;7.68;2.50;;;17.10;99.90;;;;;;4977598;28;89244;-35
2023/08/07 08:15:42;;;;;;;5.68;2.70;;;17.10;99.90;;;;;;5011712;22;91013;-34
2023/08/07 08:18:08;;;;;;;8.77;3.20;;;16.80;99.90;;;;;;4977810;28;89384;-35
2023/08/07 08:20:34;;;;;;;9.70;2.72;;;16.60;99.90;;;;;;4977567;28;90620;-33
2023/08/07 08:22:59;;;;;;;5.22;3.03;;;16.20;99.90;;;;;;4989834;28;90041;-38
2023/08/07 08:25:25;;;;;;;3.17;2.53;;;16.00;99.90;;;;;;4978480;28;89640;-35
2023/08/07 08:27:51;;;;;;;5.32;3.25;;;16.00;99.90;;;;;;4989580;28;88882;-34
2023/08/07 08:30:17;;;;;;;7.55;3.00;;;15.90;99.90;;;;;;4993009;28;89855;-34
2023/08/07 08:32:43;;;;;;;5.10;2.70;;;15.80;99.90;;;;;;4995835;28;90836;-33
2023/08/07 08:35:09;;;;;;;4.80;3.00;;;15.90;99.90;;;;;;4982523;28;90193;-38
2023/08/07 08:37:35;;;;;;;5.90;2.83;;;16.30;99.90;;;;;;4987626;28;87770;-34
2023/08/07 08:40:00;;;;;;;14.30;4.05;;;16.70;99.90;;;;;;4995381;28;90632;-34
2023/08/07 08:42:27;;;;;;;5.93;2.33;;;17.10;99.90;;;;;;4992254;28;90076;-37
2023/08/07 08:44:56;;;;;;;10.55;3.63;;;17.30;99.90;;;;;;4989258;28;89789;-35
2023/08/07 08:47:25;;;;;;;6.35;3.05;;;17.50;99.90;;;;;;5004964;28;90013;-32
2023/08/07 08:50:02;;;;;;;5.78;3.20;;;17.40;99.90;;;;;;4989970;28;89215;-33
2023/08/07 08:52:30;;;;;;;6.82;3.72;;;17.20;99.90;;;;;;4989585;28;89691;-33
2023/08/07 08:54:57;;;;;;;3.72;3.35;;;16.70;99.90;;;;;;4992224;28;88928;-33
2023/08/07 08:57:25;;;;;;;5.28;3.35;;;16.50;99.90;;;;;;4992183;28;89610;-37
2023/08/07 08:59:51;;;;;;;4.05;3.42;;;16.10;99.90;;;;;;4982819;28;89616;-33
2023/08/07 09:02:17;;;;;;;8.45;3.60;;;16.10;99.90;;;;;;4993232;28;89925;-33
2023/08/07 09:04:44;;;;;;;8.27;3.63;;;16.20;99.90;;;;;;5010531;28;90675;-31
2023/08/07 09:07:13;;;;;;;5.25;3.33;;;16.40;99.90;;;;;;5010092;28;88813;-36
2023/08/07 09:09:40;;;;;;;6.53;3.85;;;16.40;99.90;;;;;;5010197;28;90942;-35
2023/08/07 09:12:15;;;;;;;8.45;3.10;;;16.60;99.90;;;;;;5008489;28;88610;-33
2023/08/07 09:14:44;;;;;;;10.15;3.65;;;16.80;99.90;;;;;;5012202;28;89888;-36
2023/08/07 09:17:11;;;;;;;11.75;4.00;;;17.20;99.90;;;;;;5007874;28;88649;-34
2023/08/07 09:19:38;;;;;;;12.38;4.55;;;17.50;99.90;;;;;;5012030;28;90225;-35
2023/08/07 09:22:04;;;;;;;8.57;3.88;;;17.60;99.90;;;;;;5007130;28;90518;-34
2023/08/07 09:24:29;;;;;;;14.32;4.05;;;17.90;99.90;;;;;;5011069;28;89435;-35
2023/08/07 09:26:55;;;;;;;15.55;4.38;;;18.10;99.90;;;;;;5008832;27;88631;-36
2023/08/07 09:29:22;;;;;;;11.10;4.00;;;18.20;99.90;;;;;;5015369;28;90203;-36
2023/08/07 09:31:48;;;;;;;15.63;3.60;;;18.20;99.90;;;;;;5011713;28;89644;-33
2023/08/07 09:34:16;;;;;;;8.10;3.42;;;18.50;99.90;;;;;;5014533;28;89595;-34
2023/08/07 09:36:42;;;;;;;5.10;3.00;;;18.60;99.90;;;;;;5011359;28;89353;-32
2023/08/07 09:39:08;;;;;;;12.50;4.80;;;18.80;99.90;;;;;;5015294;28;90270;-33
2023/08/07 09:41:35;;;;;;;7.75;4.03;;;18.80;99.90;;;;;;5008935;28;89981;-33
2023/08/07 09:44:10;;;;;;;12.82;2.97;;;18.60;99.90;;;;;;5007608;28;90109;-38
2023/08/07 09:46:45;;;;;;;10.55;3.58;;;18.70;99.90;;;;;;5011995;28;90042;-32
2023/08/07 09:49:11;;;;;;;6.95;3.58;;;18.70;99.90;;;;;;4992683;28;89693;-33
2023/08/07 09:51:47;;;;;;;5.63;2.55;;;18.60;99.90;;;;;;5012203;28;91289;-35
2023/08/07 09:54:13;;;;;;;6.40;2.90;;;18.70;99.90;;;;;;5012769;28;89731;-34
2023/08/07 09:56:42;;;;;;;5.05;3.42;;;18.70;99.90;;;;;;5013648;28;90101;-37
2023/08/07 09:59:08;;;;;;;8.23;2.85;;;18.70;99.90;;;;;;5009671;28;90644;-37
2023/08/07 10:01:40;;;;;;;7.22;2.78;;;18.80;99.90;;;;;;4996287;28;89652;-34
2023/08/07 10:04:07;;;;;;;7.80;2.92;;;19.00;99.90;;;;;;5009069;28;89427;-36
2023/08/07 10:06:35;;;;;;;3.95;2.13;;;19.00;99.90;;;;;;5013898;28;88422;-31
2023/08/07 10:09:01;;;;;;;4.47;2.60;;;19.10;99.90;;;;;;5013434;28;90670;-35
2023/08/07 10:11:27;;;;;;;10.20;2.45;;;18.80;99.90;;;;;;5011963;28;90933;-33
2023/08/07 10:13:54;;;;;;;10.65;3.13;;;18.50;99.90;;;;;;5011878;28;90223;-33
2023/08/07 10:16:20;;;;;;;11.65;3.65;;;18.10;99.90;;;;;;5011327;28;89187;-34
2023/08/07 10:18:45;;;;;;;12.50;2.75;;;17.90;99.90;;;;;;5011254;28;89635;-35
2023/08/07 10:21:11;;;;;;;8.82;2.88;;;17.70;99.90;;;;;;5011851;28;89907;-32
2023/08/07 10:23:38;;;;;;;7.65;2.85;;;17.90;99.90;;;;;;5010476;28;89688;-36
2023/08/07 10:26:08;;;;;;;9.18;3.65;;;18.10;99.90;;;;;;5013192;28;89684;-36
2023/08/07 10:28:40;;;;;;;7.63;3.75;;;18.40;99.90;;;;;;5010475;28;90233;-36
2023/08/07 10:31:10;;;;;;;4.07;2.78;;;18.50;99.90;;;;;;5004027;28;89684;-37
2023/08/07 10:33:36;;;;;;;7.03;3.60;;;18.80;99.90;;;;;;5010418;28;89302;-33
2023/08/07 10:36:11;;;;;;;12.63;2.78;;;18.70;99.90;;;;;;4995443;28;89860;-34
2023/08/07 10:38:37;;;;;;;11.75;4.25;;;18.50;99.90;;;;;;5008429;28;90016;-36
2023/08/07 10:41:09;;;;;;;3.92;2.75;;;18.30;99.90;;;;;;5013967;28;90579;-35
2023/08/07 10:43:41;;;;;;;4.72;2.75;;;18.30;99.90;;;;;;5010012;28;90401;-33
2023/08/07 10:46:21;;;;;;;7.75;3.53;;;18.10;99.90;;;;;;5013849;28;89063;-35
2023/08/07 10:48:47;;;;;;;7.05;3.17;;;18.00;99.90;;;;;;5010587;28;90849;-34
2023/08/07 10:51:14;;;;;;;8.65;3.10;;;17.80;99.90;;;;;;5010369;28;89707;-32
2023/08/07 10:53:46;;;;;;;4.88;3.53;;;17.70;99.90;;;;;;5012557;28;89779;-39
2023/08/07 10:56:17;;;;;;;6.47;3.47;;;17.90;99.90;;;;;;5010380;28;88576;-35
2023/08/07 10:58:50;;;;;;;6.72;2.95;;;18.00;99.90;;;;;;5004236;28;91014;-35
2023/08/07 11:01:22;;;;;;;6.63;3.83;;;18.20;99.90;;;;;;4995226;28;89733;-35
2023/08/07 11:03:50;;;;;;;9.80;3.28;;;18.40;99.90;;;;;;5001448;28;90646;-35
2023/08/07 11:06:17;;;;;;;4.22;2.45;;;18.40;99.90;;;;;;4997764;28;89505;-32
2023/08/07 11:08:43;;;;;;;7.20;3.85;;;18.30;99.90;;;;;;4981741;28;89843;-34
2023/08/07 11:11:09;;;;;;;3.92;2.70;;;18.00;99.90;;;;;;4982546;28;89473;-35
2023/08/07 11:13:34;;;;;;;6.53;3.17;;;17.90;99.90;;;;;;4986847;28;89825;-32
2023/08/07 11:16:02;;;;;;;5.43;2.80;;;17.80;99.90;;;;;;4987313;28;89041;-32
2023/08/07 11:18:28;;;;;;;6.78;2.58;;;17.80;99.90;;;;;;4993176;28;91031;-38
2023/08/07 11:20:57;;;;;;;6.18;2.63;;;17.60;99.90;;;;;;4987008;28;89719;-35
2023/08/07 11:23:24;;;;;;;5.45;3.33;;;17.50;99.90;;;;;;4994445;28;89205;-31
2023/08/07 11:25:49;;;;;;;6.68;2.85;;;17.40;99.90;;;;;;4985738;28;88925;-34
2023/08/07 11:28:21;;;;;;;6.10;2.85;;;17.30;99.90;;;;;;4987868;28;90151;-33
2023/08/07 11:30:51;;;;;;;4.95;2.85;;;17.50;99.90;;;;;;4996488;28;89124;-37
2023/08/07 11:33:20;;;;;;;6.95;2.80;;;17.70;99.90;;;;;;4982088;28;88621;-36
2023/08/07 11:35:47;;;;;;;8.32;3.28;;;18.00;99.90;;;;;;4967030;28;88949;-34
2023/08/07 11:38:28;;;;;;;13.23;2.97;;;18.30;99.90;;;;;;4998063;28;90164;-36
2023/08/07 11:40:53;;;;;;;6.22;2.72;;;18.30;99.90;;;;;;5005939;28;89578;-37
2023/08/07 11:43:19;;;;;;;12.73;2.92;;;18.40;99.90;;;;;;4996242;28;89906;-32
2023/08/07 11:45:44;;;;;;;6.75;3.03;;;18.40;99.90;;;;;;4996947;28;88967;-35
2023/08/07 11:48:10;;;;;;;6.25;2.92;;;18.50;99.90;;;;;;4990795;28;91684;-33
2023/08/07 11:50:37;;;;;;;19.75;3.63;;;18.60;99.90;;;;;;4978828;28;90966;-34
2023/08/07 11:53:02;;;;;;;6.60;2.63;;;18.30;99.90;;;;;;4993190;28;89705;-37
2023/08/07 11:55:29;;;;;;;6.28;2.85;;;18.30;99.90;;;;;;4996947;28;88867;-33
2023/08/07 11:57:55;;;;;;;8.18;2.60;;;18.10;99.90;;;;;;5012862;28;90208;-33
2023/08/07 12:00:25;;;;;;;4.97;2.30;;;18.00;99.90;;;;;;5006049;28;88244;-33
2023/08/07 12:02:50;;;;;;;6.43;3.08;;;18.00;99.90;;;;;;4972087;28;89694;-36
2023/08/07 12:05:16;;;;;;;5.78;2.47;;;18.10;99.90;;;;;;4977141;28;89438;-36
2023/08/07 12:07:42;;;;;;;5.10;2.05;;;18.20;99.90;;;;;;4996666;28;91711;-35
2023/08/07 12:10:10;;;;;;;4.03;2.55;;;18.20;99.90;;;;;;4996133;28;89991;-32
2023/08/07 12:12:36;;;;;;;2.40;1.77;;;18.30;99.90;;;;;;4996034;28;89639;-35
2023/08/07 12:15:04;;;;;;;5.15;2.17;;;18.30;99.90;;;;;;4996469;28;90088;-37
2023/08/07 12:17:32;;;;;;;6.65;3.13;;;18.30;99.90;;;;;;4989823;28;90203;-36
2023/08/07 12:19:58;;;;;;;6.32;2.00;;;18.30;99.90;;;;;;5009348;28;89596;-34
2023/08/07 12:22:28;;;;;;;7.47;2.20;;;18.40;99.90;;;;;;4995638;28;89565;-32
2023/08/07 12:24:54;;;;;;;7.30;2.67;;;18.30;99.90;;;;;;4995341;28;89997;-36
2023/08/07 12:27:20;;;;;;;4.00;2.40;;;18.30;99.90;;;;;;4989670;28;90988;-37
2023/08/07 12:29:46;;;;;;;5.70;2.88;;;18.30;99.90;;;;;;4990990;28;90126;-36
2023/08/07 12:32:11;;;;;;;3.10;2.13;;;18.40;99.90;;;;;;5006602;28;89542;-35
2023/08/07 12:34:37;;;;;;;5.78;2.50;;;18.40;99.90;;;;;;4986969;28;88404;-35
2023/08/07 12:37:04;;;;;;;4.28;2.40;;;18.40;99.90;;;;;;4994689;28;90592;-32
2023/08/07 12:39:30;;;;;;;2.60;2.15;;;18.40;99.90;;;;;;4994285;28;90923;-33
2023/08/07 12:41:55;;;;;;;7.90;2.83;;;18.40;99.90;;;;;;4986607;28;90626;-31